City of Colorado Springs Municipal Airport
KCOS : rendu visible

Aérodrome :











RETROUVEZ-NOUS SUR...

 
LOGIN :

S'inscrire | Disclaimer

   EN    FR    IT 

 









Légende :    VFR   VFR Marginal   IFR   IFR Intensif   IFR Très Intensif
Visi : 
Plafond : 
>= 8 km
>= 3000ft
5 à 8 km
1000 à 3000 ft
1500m à 5 km
500 à 1000 ft
800 à 1500m
200 à 500 ft
< 800m
< 200 ft
Symboles :   Orages  Brouillard  Fortes neiges  Fortes précipitations  Vent > 20 kt






- Altitude de l'aérodrome : 6187 ft
- Code IATA : COS


KCOS - City of Colorado Springs Municipal

DERNIER METAR :
  • 262354Z 24009KT 10SM SCT160 BKN240 28/M03 A2991 RMK AO2 SLP029 T02831033 10317 20283 55002

METARs EXPIRÉS :
  • 262254Z 29010KT 10SM SCT160 BKN240 29/M04 A2991 RMK AO2 SLP026 T02891044
  • 262154Z 21006KT 10SM SCT160 OVC220 29/M04 A2991 RMK AO2 SLP020 ACSL SW T02941044

TAF KCOS
Valide du 27 à 00h jusqu'au 28 à 00h UTC


262322Z 2700/2724 29010KT P6SM SCT160 BKN200
FM270200 34010KT P6SM SCT160 BKN200
FM270500 02008KT P6SM SCT200
FM271500 06012KT P6SM FEW040
FM272000 04018G30KT P6SM BKN040
FIR KZDV / Amérique du Nord



MET'MAP, la Météo Aéronautique d'un coup d'oeil ! - Copyright ORBIFLY Décembre 2007 - Disclaimer

ORBIFLY MET'MAP TEAM :

Programmation & Développement : Alexandra Zaïnal
Sur une idée originale de : Baudouin d'Aumeries
Assistance à la programmation : Marc-Olivier Méhu
Soutien technique & logistique : Manuel Goepfert

Contact : metmap@orbifly.com




SOURCES & CREDITS :

   NOAA       Earth
Advisory